ZYTX Airport Information

Runway Information
Runway 06 Length 10499 ft width 148 ft
Elevation 171 ft Threshold 0 ft Heading 49
Runway 24 Length 10499 ft Width 148 ft
Elevation 197 ft Threshold 0 ft Heading 229
Airport Frequencies
Type ATIS Name ATIS Frequency 127.45 MHZ
Type TWR Name SHENYANG T Frequency 118.1 MHZ
Airport Navaids
Type NDB Name Wangbingou Frequency 365 KHZ
Type NDB Name Dongyangjiao Frequency 296 KHZ
Type VOR-DME Name Shenyang Frequency 114100 KHZ
Airport Weather Information & NOTAM
ADDS - METARS form results

(2247 UTC 20 October 2020)
Data provider http://aviationweather.gov/metar/data/
 
METAR text: ZYTX 202230Z 19005MPS 9999 OVC043 16/06 Q1014 NOSIG
Conditions at: ZYTX (SHENYANG/TAOKIAN, CN) observed 2230 UTC 20 October 2020
Temperature: 16.0°C (61°F)
Dewpoint: 6.0°C (43°F) [RH = 51%]
Pressure (altimeter): 29.94 inches Hg (1014.0 mb)
Winds: from the S (190 degrees) at 12 MPH (10 knots; 5.1 m/s)
Visibility: 6 or more miles (10+ km)
Ceiling: 4300 feet AGL
Clouds: overcast cloud deck at 4300 feet AGL
Weather: no significant weather observed at this time

METAR text: ZYTX 202200Z 19005MPS 9999 OVC043 15/05 Q1014 NOSIG
Conditions at: ZYTX (SHENYANG/TAOKIAN, CN) observed 2200 UTC 20 October 2020
Temperature: 15.0°C (59°F)
Dewpoint: 5.0°C (41°F) [RH = 51%]
Pressure (altimeter): 29.94 inches Hg (1014.0 mb)
Winds: from the S (190 degrees) at 12 MPH (10 knots; 5.1 m/s)
Visibility: 6 or more miles (10+ km)
Ceiling: 4300 feet AGL
Clouds: overcast cloud deck at 4300 feet AGL
Weather: no significant weather observed at this time

Forecast for: ZYTX (SHENYANG/TAOKIAN, CN)
Text: TAF ZYTX 202104Z 2100/2124 34004MPS 6000 BKN040 TX16/2103Z TNM01/2121Z
Forecast period: 0000 UTC 21 October 2020 to 0000 UTC 22 October 2020
Forecast type: FROM: standard forecast or significant change
Winds: from the NNW (340 degrees) at 9 MPH (8 knots; 4.1 m/s)
Visibility: 4 miles (6 km)
Ceiling: 4000 feet AGL
Clouds: broken clouds at 4000 feet AGL
Weather: no significant weather forecast for this period
Text: TEMPO 2102/2106 -TSRA FEW033CB BKN040
Forecast period: 0200 to 0600 UTC 21 October 2020
Forecast type: TEMPORARY: The following changes expected for less than half the time period
Visibility: missing
Ceiling: 4000 feet AGL
Clouds: few clouds at 3300 feet AGL
broken clouds at 4000 feet AGL
Weather: -TSRA  (light rain associated with thunderstorm(s))